Terminal Aerodrome Forecast
Issued by NWS Duluth, MN

Home | Current Version | Previous Version | Text Only | Print | Product List | Glossary On
Versions: 1 2 3 4 5 6 7 8 9 10 11 12 13 14 15 16 17 18 19 20 21 22 23 24 25 26 27 28
000
FTUS43 KDLH 141000 AAA
TAFINL
TAF AMD
KINL 141032Z 1411/1506 22008KT P6SM VCSH BKN012 OVC030
      TEMPO 1411/1414 SCT012 OVC030
     FM141400 25008G16KT P6SM VCSH SCT015 OVC028
     FM141800 28012G20KT P6SM VCTS BKN030CB
     FM150000 26007KT P6SM BKN035=

USA.gov is the U.S. government's official web portal to all federal, state and local government web resources and services.